Time;durP1;ratioP1;P1;durP2;ratioP2;P2;SDS_P1;SDS_P2;PMS_P1;PMS_P2;Temp;Humidity;BMP_temperature;BMP_pressure;BME280_temperature;BME280_humidity;BME280_pressure;Samples;Min_cycle;Max_cycle;Signal;HPM_P1;HPM_P2
2024/03/24 00:00:40;;;;;;;;;;;;;;;21.54;32.21;100930.31;4100934;29;19930;-76
2024/03/24 00:02:41;;;;;;;;;;;;;;;21.54;31.76;100930.31;4100728;29;19922;-75
2024/03/24 00:04:42;;;;;;;;;;;;;;;21.51;31.85;100931.41;4100550;29;20392;-75
2024/03/24 00:06:43;;;;;;;;;;;;;;;21.48;31.77;100926.31;4100716;29;20014;-75
2024/03/24 00:08:44;;;;;;;;;;;;;;;21.48;32.19;100936.16;4100688;29;19922;-75
2024/03/24 00:10:45;;;;;;;;;;;;;;;21.48;31.92;100929.00;4100449;29;20429;-75
2024/03/24 00:12:46;;;;;;;;;;;;;;;21.50;32.25;100936.88;4100194;29;19922;-76
2024/03/24 00:14:47;;;;;;;;;;;;;;;21.50;32.02;100937.72;4100707;29;20455;-75
2024/03/24 00:16:48;;;;;;;;;;;;;;;21.48;31.82;100931.66;4100678;29;19922;-76
2024/03/24 00:18:49;;;;;;;;;;;;;;;21.50;31.94;100936.88;4100469;29;20520;-75
2024/03/24 00:20:49;;;;;;;;;;;;;;;21.51;31.93;100934.09;4100478;29;19926;-75
2024/03/24 00:22:51;;;;;;;;;;;;;;;21.50;32.12;100939.56;4100585;29;19922;-75
2024/03/24 00:24:52;;;;;;;;;;;;;;;21.50;32.03;100936.88;4100549;29;19928;-75
2024/03/24 00:26:52;;;;;;;;;;;;;;;21.50;32.08;100939.56;4100696;29;19930;-74
2024/03/24 00:28:53;;;;;;;;;;;;;;;21.49;32.09;100941.38;4100030;29;20317;-74
2024/03/24 00:30:54;;;;;;;;;;;;;;;21.49;31.62;100940.53;4100327;29;19922;-75
2024/03/24 00:32:55;;;;;;;;;;;;;;;21.47;32.00;100932.63;4100324;29;19972;-75
2024/03/24 00:34:56;;;;;;;;;;;;;;;21.47;32.01;100935.31;4100207;29;19929;-74
2024/03/24 00:36:57;;;;;;;;;;;;;;;21.48;32.02;100939.69;4100365;29;19923;-74
2024/03/24 00:38:58;;;;;;;;;;;;;;;21.47;31.80;100934.44;4085822;29;20025;-74
2024/03/24 00:40:58;;;;;;;;;;;;;;;21.49;31.65;100935.19;4107088;28;19923;-74
2024/03/24 00:42:59;;;;;;;;;;;;;;;21.48;31.97;100929.00;4100123;29;19985;-74
2024/03/24 00:45:00;;;;;;;;;;;;;;;21.50;31.56;100927.03;4100272;29;19922;-75
2024/03/24 00:47:01;;;;;;;;;;;;;;;21.51;31.75;100922.53;4100182;29;19930;-75
2024/03/24 00:49:03;;;;;;;;;;;;;;;21.52;31.82;100926.94;4099875;29;19928;-74
2024/03/24 00:51:04;;;;;;;;;;;;;;;21.52;31.66;100916.22;4100115;29;19923;-75
2024/03/24 00:53:05;;;;;;;;;;;;;;;21.52;31.69;100921.56;4100131;29;20451;-73
2024/03/24 00:55:06;;;;;;;;;;;;;;;21.51;31.84;100926.06;4099883;29;20470;-74
2024/03/24 00:57:07;;;;;;;;;;;;;;;21.51;32.05;100920.69;4099604;29;19923;-73
2024/03/24 00:59:08;;;;;;;;;;;;;;;21.49;31.71;100917.28;4100229;29;19973;-74
2024/03/24 01:01:09;;;;;;;;;;;;;;;21.45;31.95;100912.31;4099794;28;19930;-74
2024/03/24 01:03:09;;;;;;;;;;;;;;;21.44;32.00;100915.97;4100123;29;19923;-76
2024/03/24 01:05:10;;;;;;;;;;;;;;;21.44;32.04;100907.94;4100030;29;20391;-75
2024/03/24 01:07:11;;;;;;;;;;;;;;;21.47;32.14;100913.03;4100026;29;19937;-74
2024/03/24 01:09:13;;;;;;;;;;;;;;;21.48;31.88;100912.94;4099853;29;19922;-75
2024/03/24 01:11:14;;;;;;;;;;;;;;;21.49;31.94;100909.25;4099570;29;19928;-74
2024/03/24 01:13:15;;;;;;;;;;;;;;;21.48;31.76;100904.91;4099798;29;20418;-74
2024/03/24 01:15:16;;;;;;;;;;;;;;;21.48;31.62;100907.59;4099604;29;19970;-74
2024/03/24 01:17:17;;;;;;;;;;;;;;;21.47;31.70;100896.97;4099575;29;19928;-75
2024/03/24 01:19:17;;;;;;;;;;;;;;;21.45;31.99;100897.09;4099615;29;19922;-75
2024/03/24 01:21:18;;;;;;;;;;;;;;;21.46;31.76;100895.25;4099670;29;20008;-75
2024/03/24 01:23:19;;;;;;;;;;;;;;;21.42;32.10;100891.97;4099654;29;20416;-75
2024/03/24 01:25:20;;;;;;;;;;;;;;;21.42;31.65;100894.66;4099288;29;19922;-75
2024/03/24 01:27:21;;;;;;;;;;;;;;;21.43;31.77;100892.84;4099608;29;19923;-73
2024/03/24 01:29:23;;;;;;;;;;;;;;;21.41;31.63;100892.09;4099302;29;20425;-75
2024/03/24 01:31:23;;;;;;;;;;;;;;;21.38;31.91;100896.72;4099572;29;19926;-75
2024/03/24 01:33:24;;;;;;;;;;;;;;;21.38;31.69;100896.72;4099428;29;19922;-74
2024/03/24 01:35:25;;;;;;;;;;;;;;;21.40;31.69;100893.94;4099330;29;20401;-75
2024/03/24 01:37:26;;;;;;;;;;;;;;;21.40;31.84;100896.63;4099289;29;19985;-74
2024/03/24 01:39:26;;;;;;;;;;;;;;;21.41;31.67;100898.34;4104576;28;19926;-73
2024/03/24 01:41:28;;;;;;;;;;;;;;;21.41;31.92;100892.97;4102288;28;20009;-75
2024/03/24 01:43:28;;;;;;;;;;;;;;;21.42;31.59;100885.78;4099480;29;19929;-74
2024/03/24 01:45:29;;;;;;;;;;;;;;;21.42;31.92;100886.63;4099289;29;19926;-74
2024/03/24 01:47:33;;;;;;;;;;;;;;;21.43;31.60;100879.47;4083577;29;19926;-74
2024/03/24 01:49:33;;;;;;;;;;;;;;;21.41;31.57;100889.44;4099027;29;19926;-74
2024/03/24 01:51:35;;;;;;;;;;;;;;;21.42;31.72;100883.94;4099119;29;20380;-75
2024/03/24 01:53:36;;;;;;;;;;;;;;;21.41;31.76;100876.06;4099035;29;19922;-75
2024/03/24 01:55:37;;;;;;;;;;;;;;;21.41;31.62;100870.72;4098728;29;19931;-74
2024/03/24 01:57:39;;;;;;;;;;;;;;;21.36;31.84;100874.59;4099202;29;20346;-74
2024/03/24 01:59:40;;;;;;;;;;;;;;;21.35;31.74;100869.34;4098878;29;19922;-75
2024/03/24 02:01:42;;;;;;;;;;;;;;;21.35;31.57;100878.25;4098951;29;19922;-75
2024/03/24 02:03:42;;;;;;;;;;;;;;;21.36;31.55;100873.75;4098757;29;19927;-75
2024/03/24 02:05:43;;;;;;;;;;;;;;;21.39;31.63;100876.19;4098943;29;19963;-74
2024/03/24 02:07:44;;;;;;;;;;;;;;;21.39;31.92;100878.88;4099033;29;20001;-75
2024/03/24 02:09:45;;;;;;;;;;;;;;;21.37;31.82;100876.31;4098374;29;20009;-75
2024/03/24 02:11:46;;;;;;;;;;;;;;;21.37;31.70;100878.13;4098320;28;20052;-74
2024/03/24 02:13:47;;;;;;;;;;;;;;;21.37;31.79;100876.31;4098745;29;19930;-74
2024/03/24 02:15:48;;;;;;;;;;;;;;;21.38;31.48;100882.50;4098624;29;19923;-75
2024/03/24 02:17:50;;;;;;;;;;;;;;;21.36;31.68;100873.75;4098658;29;19922;-74
2024/03/24 02:19:51;;;;;;;;;;;;;;;21.36;31.69;100871.94;4098994;29;19940;-74
2024/03/24 02:21:52;;;;;;;;;;;;;;;21.37;31.74;100870.97;4098512;29;19965;-74
2024/03/24 02:23:53;;;;;;;;;;;;;;;21.34;31.90;100875.72;4098538;29;19926;-74
2024/03/24 02:25:54;;;;;;;;;;;;;;;21.32;31.54;100870.44;4098518;29;19978;-73
2024/03/24 02:27:55;;;;;;;;;;;;;;;21.30;31.60;100863.53;4098780;29;19922;-73
2024/03/24 02:29:55;;;;;;;;;;;;;;;21.30;31.47;100864.41;4082588;29;20390;-73
2024/03/24 02:31:56;;;;;;;;;;;;;;;21.32;31.82;100865.09;4098737;29;19922;-74
2024/03/24 02:33:57;;;;;;;;;;;;;;;21.32;31.56;100865.09;4098694;29;19978;-74
2024/03/24 02:35:58;;;;;;;;;;;;;;;21.34;31.61;100865.84;4098606;29;20003;-74
2024/03/24 02:37:59;;;;;;;;;;;;;;;21.34;31.81;100868.53;4098280;29;19926;-74
2024/03/24 02:39:59;;;;;;;;;;;;;;;21.32;31.84;100858.91;4107193;28;19922;-73
2024/03/24 02:42:00;;;;;;;;;;;;;;;21.31;31.72;100868.78;4098324;29;20405;-73
2024/03/24 02:44:01;;;;;;;;;;;;;;;21.32;31.62;100869.63;4098376;29;19973;-72
2024/03/24 02:46:02;;;;;;;;;;;;;;;21.31;31.94;100865.22;4098518;29;20005;-72
2024/03/24 02:48:03;;;;;;;;;;;;;;;21.32;31.51;100874.97;4098345;29;20432;-73
2024/03/24 02:50:05;;;;;;;;;;;;;;;21.31;31.80;100867.91;4098509;29;19948;-73
2024/03/24 02:52:06;;;;;;;;;;;;;;;21.29;31.53;100862.69;4082129;29;19929;-73
2024/03/24 02:54:07;;;;;;;;;;;;;;;21.28;31.65;100866.34;4098347;29;20397;-73
2024/03/24 02:56:11;;;;;;;;;;;;;;;21.28;31.71;100862.81;4098574;29;19923;-74
2024/03/24 02:58:12;;;;;;;;;;;;;;;21.27;31.60;100869.13;4098513;29;20320;-73
2024/03/24 03:00:13;;;;;;;;;;;;;;;21.27;31.62;100869.13;4098324;29;19930;-73
2024/03/24 03:02:14;;;;;;;;;;;;;;;21.26;31.55;100865.59;4098434;29;20428;-73
2024/03/24 03:04:15;;;;;;;;;;;;;;;21.27;31.60;100863.78;4082504;29;19923;-73
2024/03/24 03:06:16;;;;;;;;;;;;;;;21.28;31.33;100862.81;4097714;29;20349;-72
2024/03/24 03:08:17;;;;;;;;;;;;;;;21.28;31.73;100860.16;4096631;28;19922;-72
2024/03/24 03:10:18;;;;;;;;;;;;;;;21.28;31.70;100860.16;4097706;29;19944;-72
2024/03/24 03:12:19;;;;;;;;;;;;;;;21.29;31.52;100865.38;4098255;29;20406;-75
2024/03/24 03:14:20;;;;;;;;;;;;;;;21.28;31.52;100860.16;4097893;29;19958;-74
2024/03/24 03:16:21;;;;;;;;;;;;;;;21.27;31.54;100864.63;4082001;29;19923;-74
2024/03/24 03:18:22;;;;;;;;;;;;;;;21.27;31.77;100859.28;4081914;29;19923;-74
2024/03/24 03:20:23;;;;;;;;;;;;;;;21.26;31.44;100854.88;4098077;29;19926;-73
2024/03/24 03:22:24;;;;;;;;;;;;;;;21.24;31.42;100848.84;4097817;29;20460;-74
2024/03/24 03:24:25;;;;;;;;;;;;;;;21.24;31.34;100859.53;4099178;28;19929;-73
2024/03/24 03:26:26;;;;;;;;;;;;;;;21.24;31.74;100864.88;4101607;29;20301;-74
2024/03/24 03:28:27;;;;;;;;;;;;;;;21.23;31.65;100858.66;4101517;29;20289;-73
2024/03/24 03:30:27;;;;;;;;;;;;;;;21.25;31.71;100861.22;4101301;29;19922;-73
2024/03/24 03:32:28;;;;;;;;;;;;;;;21.26;31.38;100862.06;4101323;29;19945;-73
2024/03/24 03:34:29;;;;;;;;;;;;;;;21.22;31.55;100859.63;4101136;29;19973;-73
2024/03/24 03:36:30;;;;;;;;;;;;;;;21.22;31.56;100864.97;4101057;29;19930;-72
2024/03/24 03:38:31;;;;;;;;;;;;;;;21.21;31.38;100863.28;4101218;29;20016;-73
2024/03/24 03:40:32;;;;;;;;;;;;;;;21.21;31.38;100859.75;4109849;28;19929;-73
2024/03/24 03:42:33;;;;;;;;;;;;;;;21.21;31.42;100854.41;4100994;29;20032;-74
2024/03/24 03:44:33;;;;;;;;;;;;;;;21.21;31.62;100855.25;4100993;29;19978;-73
2024/03/24 03:46:34;;;;;;;;;;;;;;;21.20;31.34;100855.38;4100942;29;20044;-73
2024/03/24 03:48:39;;;;;;;;;;;;;;;21.20;31.54;100856.25;4100932;29;19922;-73
2024/03/24 03:50:41;;;;;;;;;;;;;;;21.18;31.34;100855.50;4100691;29;20393;-74
2024/03/24 03:52:47;;;;;;;;;;;;;;;21.17;31.72;100859.16;4100774;29;19922;-74
2024/03/24 03:54:50;;;;;;;;;;;;;;;21.18;31.71;100865.34;4084936;29;20477;-74
2024/03/24 03:56:51;;;;;;;;;;;;;;;21.16;31.73;100864.63;4101001;29;20074;-72
2024/03/24 03:58:51;;;;;;;;;;;;;;;21.17;31.63;100860.97;4100668;29;19926;-74
2024/03/24 04:00:52;;;;;;;;;;;;;;;21.19;31.47;100861.69;4101038;29;19923;-74
2024/03/24 04:02:53;;;;;;;;;;;;;;;21.20;31.73;100855.38;4100745;29;19980;-73
2024/03/24 04:04:54;;;;;;;;;;;;;;;21.20;31.63;100860.72;4099087;29;20093;-74
2024/03/24 04:06:56;;;;;;;;;;;;;;;21.20;31.48;100861.59;4100375;29;19926;-73
2024/03/24 04:08:57;;;;;;;;;;;;;;;21.18;31.64;100857.31;4100316;29;20310;-73
2024/03/24 04:10:58;;;;;;;;;;;;;;;21.17;31.62;100859.16;4100400;29;20022;-73
2024/03/24 04:12:59;;;;;;;;;;;;;;;21.18;31.62;100855.50;4084886;29;19922;-74
2024/03/24 04:15:00;;;;;;;;;;;;;;;21.17;31.76;100855.63;4100454;29;20448;-73
2024/03/24 04:17:01;;;;;;;;;;;;;;;21.16;31.65;100864.63;4100177;29;19973;-72
2024/03/24 04:19:02;;;;;;;;;;;;;;;21.15;31.58;100870.94;4100417;29;19927;-74
2024/03/24 04:21:03;;;;;;;;;;;;;;;21.14;31.61;100866.56;4084094;29;19922;-74
2024/03/24 04:23:04;;;;;;;;;;;;;;;21.13;31.46;100867.53;4100278;29;19933;-74
2024/03/24 04:25:05;;;;;;;;;;;;;;;21.12;31.27;100871.16;4100366;29;19929;-72
2024/03/24 04:27:05;;;;;;;;;;;;;;;21.12;31.52;100876.50;4100337;29;20373;-74
2024/03/24 04:29:06;;;;;;;;;;;;;;;21.12;31.28;100872.03;4100023;29;20409;-73
2024/03/24 04:31:07;;;;;;;;;;;;;;;21.12;31.53;100877.38;4100171;29;19922;-74
2024/03/24 04:33:08;;;;;;;;;;;;;;;21.11;31.31;100880.19;4100261;29;20409;-72
2024/03/24 04:35:09;;;;;;;;;;;;;;;21.14;31.38;100885.28;4099150;28;20016;-74
2024/03/24 04:37:10;;;;;;;;;;;;;;;21.10;31.63;100892.69;4100161;29;20017;-72
2024/03/24 04:39:12;;;;;;;;;;;;;;;21.10;31.27;100883.81;4103281;28;19922;-73
2024/03/24 04:41:13;;;;;;;;;;;;;;;21.10;31.12;100887.34;4083697;29;20448;-73
2024/03/24 04:43:15;;;;;;;;;;;;;;;21.08;31.16;100889.28;4100065;29;19923;-72
2024/03/24 04:45:16;;;;;;;;;;;;;;;21.05;31.44;100882.34;4099879;29;19922;-74
2024/03/24 04:47:17;;;;;;;;;;;;;;;21.05;31.37;100889.53;4083969;29;20420;-74
2024/03/24 04:49:18;;;;;;;;;;;;;;;21.05;31.42;100886.84;4099548;29;20016;-73
2024/03/24 04:51:19;;;;;;;;;;;;;;;21.05;31.43;100900.22;4100071;29;19922;-72
2024/03/24 04:53:20;;;;;;;;;;;;;;;21.02;31.39;100901.31;4099820;29;19922;-73
2024/03/24 04:55:21;;;;;;;;;;;;;;;21.04;31.44;100907.38;4099897;29;19922;-72
2024/03/24 04:57:22;;;;;;;;;;;;;;;21.03;31.34;100903.03;4099968;29;20316;-73
2024/03/24 04:59:23;;;;;;;;;;;;;;;21.04;31.44;100902.03;4099833;29;20309;-74
2024/03/24 05:01:24;;;;;;;;;;;;;;;21.04;31.41;100902.03;4099635;29;19985;-73
2024/03/24 05:03:24;;;;;;;;;;;;;;;21.07;31.25;100900.97;4099268;29;19926;-72
2024/03/24 05:05:26;;;;;;;;;;;;;;;21.07;31.22;100895.63;4099739;29;19930;-73
2024/03/24 05:07:27;;;;;;;;;;;;;;;21.08;31.36;100896.47;4099686;29;19922;-72
2024/03/24 05:09:28;;;;;;;;;;;;;;;21.07;31.38;100892.94;4099573;29;20390;-73
2024/03/24 05:11:29;;;;;;;;;;;;;;;21.07;31.35;100890.28;4099618;29;19922;-73
2024/03/24 05:13:29;;;;;;;;;;;;;;;21.03;31.31;100886.97;4099295;29;20002;-73
2024/03/24 05:15:31;;;;;;;;;;;;;;;21.01;31.55;100878.22;4099436;29;20027;-74
2024/03/24 05:17:32;;;;;;;;;;;;;;;21.00;31.44;100891.72;4098950;29;20374;-73
2024/03/24 05:19:33;;;;;;;;;;;;;;;20.98;31.22;100881.09;4099397;29;19926;-73
2024/03/24 05:21:34;;;;;;;;;;;;;;;21.00;31.19;100883.69;4083680;29;19927;-73
2024/03/24 05:23:35;;;;;;;;;;;;;;;20.99;31.22;100890.84;4099347;29;20298;-74
2024/03/24 05:25:38;;;;;;;;;;;;;;;21.00;31.39;100881.84;4099386;29;19973;-72
2024/03/24 05:27:39;;;;;;;;;;;;;;;21.00;31.02;100884.53;4099253;29;19929;-74
2024/03/24 05:29:40;;;;;;;;;;;;;;;21.01;31.22;100880.88;4099166;29;20417;-73
2024/03/24 05:31:45;;;;;;;;;;;;;;;21.00;31.35;100878.34;4098761;29;19926;-74
2024/03/24 05:33:47;;;;;;;;;;;;;;;21.02;31.26;100877.25;4098971;29;19923;-72
2024/03/24 05:35:56;;;;;;;;;;;;;;;21.01;31.32;100886.25;4099134;29;19922;-74
2024/03/24 05:37:57;;;;;;;;;;;;;;;21.00;31.32;100878.34;4083360;29;19923;-74
2024/03/24 05:39:58;;;;;;;;;;;;;;;20.99;31.10;100879.31;4107613;28;19961;-73
2024/03/24 05:41:59;;;;;;;;;;;;;;;20.99;31.24;100876.63;4099207;29;19922;-73
2024/03/24 05:43:59;;;;;;;;;;;;;;;20.96;31.16;100874.19;4098859;29;19974;-74
2024/03/24 05:46:00;;;;;;;;;;;;;;;20.95;31.32;100870.66;4083083;29;19950;-72
2024/03/24 05:48:01;;;;;;;;;;;;;;;20.95;31.22;100870.66;4097876;29;19923;-74
2024/03/24 05:50:02;;;;;;;;;;;;;;;20.97;31.10;100882.06;4098955;29;19922;-74
2024/03/24 05:52:03;;;;;;;;;;;;;;;20.96;31.29;100875.06;4098735;29;19944;-74
2024/03/24 05:54:04;;;;;;;;;;;;;;;20.98;31.13;100880.28;4098908;29;19926;-72
2024/03/24 05:56:06;;;;;;;;;;;;;;;20.99;31.24;100887.31;4099016;29;19923;-73
2024/03/24 05:58:07;;;;;;;;;;;;;;;20.99;31.19;100887.31;4098868;29;19922;-72
2024/03/24 06:00:09;;;;;;;;;;;;;;;20.99;31.39;100890.00;4098925;29;20029;-73
2024/03/24 06:02:10;;;;;;;;;;;;;;;20.96;31.30;100891.09;4098809;29;19926;-73
2024/03/24 06:04:10;;;;;;;;;;;;;;;20.96;31.21;100896.44;4098635;29;19956;-72
2024/03/24 06:06:11;;;;;;;;;;;;;;;20.97;31.32;100899.94;4099077;29;20041;-73
2024/03/24 06:08:12;;;;;;;;;;;;;;;20.95;31.42;100897.41;4098769;29;19930;-72
2024/03/24 06:10:13;;;;;;;;;;;;;;;20.94;31.04;100900.22;4098544;29;19922;-73
2024/03/24 06:12:14;;;;;;;;;;;;;;;20.92;31.22;100897.63;4098936;29;19969;-72
2024/03/24 06:14:15;;;;;;;;;;;;;;;20.90;31.15;100897.75;4098550;29;19922;-72
2024/03/24 06:16:15;;;;;;;;;;;;;;;20.89;31.03;100896.03;4098531;29;19922;-74
2024/03/24 06:18:16;;;;;;;;;;;;;;;20.90;31.28;100886.22;4098495;29;19922;-73
2024/03/24 06:20:17;;;;;;;;;;;;;;;20.93;31.38;100887.81;4098601;28;19962;-73
2024/03/24 06:22:18;;;;;;;;;;;;;;;20.94;31.35;100889.50;4098419;29;19981;-73
2024/03/24 06:24:19;;;;;;;;;;;;;;;20.97;31.39;100902.63;4098599;29;20429;-73
2024/03/24 06:26:20;;;;;;;;;;;;;;;20.96;31.32;100903.59;4082773;29;19923;-73
2024/03/24 06:28:21;;;;;;;;;;;;;;;20.96;31.13;100906.25;4098499;29;20278;-74
2024/03/24 06:30:22;;;;;;;;;;;;;;;20.96;31.29;100909.81;4098076;29;19922;-72
2024/03/24 06:32:23;;;;;;;;;;;;;;;20.94;31.37;100910.91;4098515;29;19922;-74
2024/03/24 06:34:24;;;;;;;;;;;;;;;20.92;30.99;100907.47;4098344;29;20369;-73
2024/03/24 06:36:24;;;;;;;;;;;;;;;20.92;31.08;100912.81;4098503;29;19973;-73
2024/03/24 06:38:27;;;;;;;;;;;;;;;20.89;31.10;100906.75;4098529;29;19923;-73
2024/03/24 06:40:28;;;;;;;;;;;;;;;20.88;31.04;100906.88;4107106;28;19929;-73
2024/03/24 06:42:29;;;;;;;;;;;;;;;20.87;31.06;100902.47;4098150;29;19922;-73
2024/03/24 06:44:37;;;;;;;;;;;;;;;20.86;31.31;100896.28;4098076;29;20004;-72
2024/03/24 06:46:38;;;;;;;;;;;;;;;20.89;31.12;100908.56;4098362;29;19994;-73
2024/03/24 06:48:39;;;;;;;;;;;;;;;20.89;31.12;100909.41;4098282;29;20412;-72
2024/03/24 06:50:40;;;;;;;;;;;;;;;20.90;31.40;100919.13;4098118;29;19922;-73
2024/03/24 06:52:40;;;;;;;;;;;;;;;20.92;31.27;100916.34;4098337;29;19922;-72
2024/03/24 06:54:42;;;;;;;;;;;;;;;20.93;31.10;100906.53;4098074;29;20405;-73
2024/03/24 06:56:43;;;;;;;;;;;;;;;20.90;31.14;100904.94;4098244;29;19922;-73
2024/03/24 06:58:44;;;;;;;;;;;;;;;20.91;31.00;100906.63;4097551;28;19927;-73
2024/03/24 07:00:45;;;;;;;;;;;;;;;20.89;31.30;100896.03;4082271;29;19923;-74
2024/03/24 07:02:46;;;;;;;;;;;;;;;20.88;31.11;100901.50;4098178;29;19931;-74
2024/03/24 07:04:47;;;;;;;;;;;;;;;20.89;31.05;100903.22;4082100;29;19923;-73
2024/03/24 07:06:48;;;;;;;;;;;;;;;20.86;31.26;100893.63;4098200;29;20021;-73
2024/03/24 07:08:49;;;;;;;;;;;;;;;20.84;31.17;100898.22;4098305;29;20398;-74
2024/03/24 07:10:51;;;;;;;;;;;;;;;20.84;31.26;100908.91;4097779;29;19933;-73
2024/03/24 07:12:51;;;;;;;;;;;;;;;20.84;31.17;100911.59;4098078;29;19932;-72
2024/03/24 07:14:53;;;;;;;;;;;;;;;20.85;30.99;100904.41;4097619;29;19926;-73
2024/03/24 07:16:55;;;;;;;;;;;;;;;20.85;30.87;100913.31;4097766;29;19927;-69
2024/03/24 07:18:56;;;;;;;;;;;;;;;20.86;31.15;100903.44;4097937;29;19926;-71
2024/03/24 07:20:57;;;;;;;;;;;;;;;20.87;31.07;100905.16;4097799;29;19922;-72
2024/03/24 07:22:58;;;;;;;;;;;;;;;20.88;31.07;100913.06;4097829;29;19968;-73
2024/03/24 07:24:59;;;;;;;;;;;;;;;20.87;30.91;100914.00;4097905;29;19927;-73
2024/03/24 07:26:59;;;;;;;;;;;;;;;20.91;31.22;100922.66;4097688;29;19958;-73
2024/03/24 07:29:00;;;;;;;;;;;;;;;20.93;30.86;100914.53;4097740;29;20434;-72
2024/03/24 07:31:01;;;;;;;;;;;;;;;20.93;31.09;100920.72;4081848;29;19974;-73
2024/03/24 07:33:02;;;;;;;;;;;;;;;20.92;30.87;100918.19;4097693;29;19922;-73
2024/03/24 07:35:03;;;;;;;;;;;;;;;20.92;30.77;100927.03;4097690;29;20013;-72
2024/03/24 07:37:04;;;;;;;;;;;;;;;20.91;30.84;100928.00;4097817;29;19946;-75
2024/03/24 07:39:05;;;;;;;;;;;;;;;20.94;31.04;100925.09;4100509;28;19926;-73
2024/03/24 07:41:05;;;;;;;;;;;;;;;20.96;30.76;100925.84;4103816;28;19957;-71
2024/03/24 07:43:06;;;;;;;;;;;;;;;20.98;30.75;100931.91;4097200;29;19926;-71
2024/03/24 07:45:08;;;;;;;;;;;;;;;20.96;30.91;100933.88;4097602;29;19922;-72
2024/03/24 07:47:09;;;;;;;;;;;;;;;20.96;30.71;100941.91;4097779;29;19922;-73
2024/03/24 07:49:11;;;;;;;;;;;;;;;21.01;30.55;100930.81;4081916;29;19945;-72
2024/03/24 07:51:11;;;;;;;;;;;;;;;21.01;30.82;100949.53;4097067;29;19922;-71
2024/03/24 07:53:12;;;;;;;;;;;;;;;20.99;30.81;100949.66;4097483;29;19923;-72
2024/03/24 07:55:13;;;;;;;;;;;;;;;20.97;30.78;100954.28;4097964;29;20436;-71
2024/03/24 07:57:14;;;;;;;;;;;;;;;20.96;30.64;100954.41;4097445;29;19922;-72
2024/03/24 07:59:17;;;;;;;;;;;;;;;20.96;31.00;100957.06;4097555;29;20485;-72
2024/03/24 08:01:18;;;;;;;;;;;;;;;20.97;30.86;100950.75;4097502;29;19929;-73
2024/03/24 08:03:19;;;;;;;;;;;;;;;20.94;31.00;100943.81;4097498;29;19932;-71
2024/03/24 08:05:20;;;;;;;;;;;;;;;20.89;30.99;100938.81;4097637;29;20021;-73
2024/03/24 08:07:21;;;;;;;;;;;;;;;20.89;30.95;100940.66;4097786;29;19954;-73
2024/03/24 08:09:22;;;;;;;;;;;;;;;20.94;30.80;100948.34;4097573;28;19962;-74
2024/03/24 08:11:22;;;;;;;;;;;;;;;20.96;30.89;100957.06;4099562;29;20012;-73
2024/03/24 08:13:23;;;;;;;;;;;;;;;20.97;31.05;100950.75;4091208;29;19946;-73
2024/03/24 08:15:24;;;;;;;;;;;;;;;20.97;31.24;100956.09;4084545;29;20378;-72
2024/03/24 08:17:25;;;;;;;;;;;;;;;21.00;31.03;100947.88;4084297;29;20421;-72
2024/03/24 08:19:26;;;;;;;;;;;;;;;21.05;30.96;100951.03;4084462;29;20004;-72
2024/03/24 08:21:26;;;;;;;;;;;;;;;21.05;30.88;100949.19;4085771;29;19927;-73
2024/03/24 08:23:27;;;;;;;;;;;;;;;21.03;31.26;100958.31;4100230;29;19922;-74
2024/03/24 08:25:28;;;;;;;;;;;;;;;21.00;31.16;100948.69;4100232;29;20427;-73
2024/03/24 08:27:29;;;;;;;;;;;;;;;20.99;31.20;100960.34;4099847;29;19973;-73
2024/03/24 08:29:30;;;;;;;;;;;;;;;21.00;31.04;100959.41;4100245;29;20680;-72
2024/03/24 08:31:31;;;;;;;;;;;;;;;20.99;31.25;100956.84;4100279;29;19926;-73
2024/03/24 08:33:31;;;;;;;;;;;;;;;20.98;31.10;100953.31;4100166;29;19923;-73
2024/03/24 08:35:32;;;;;;;;;;;;;;;20.97;31.33;100959.63;4100117;29;20021;-73
2024/03/24 08:37:33;;;;;;;;;;;;;;;20.97;31.10;100961.44;4099918;29;19937;-72
2024/03/24 08:39:34;;;;;;;;;;;;;;;20.98;31.13;100958.66;4106275;28;19922;-72
2024/03/24 08:41:35;;;;;;;;;;;;;;;20.99;31.37;100944.31;4101931;28;19926;-73
2024/03/24 08:43:36;;;;;;;;;;;;;;;20.98;31.13;100947.13;4100010;29;20332;-71
2024/03/24 08:45:37;;;;;;;;;;;;;;;20.99;31.09;100952.34;4099807;29;20021;-73
2024/03/24 08:47:38;;;;;;;;;;;;;;;20.99;31.14;100951.50;4099951;29;19926;-72
2024/03/24 08:49:38;;;;;;;;;;;;;;;21.01;31.01;100949.53;4099903;29;19922;-73
2024/03/24 08:51:41;;;;;;;;;;;;;;;20.99;31.24;100954.19;4099746;29;19952;-71
2024/03/24 08:53:42;;;;;;;;;;;;;;;20.98;31.22;100955.13;4099695;29;20042;-72
2024/03/24 08:55:42;;;;;;;;;;;;;;;20.93;31.24;100947.47;4099665;29;19976;-72
2024/03/24 08:57:44;;;;;;;;;;;;;;;20.90;31.13;100953.06;4099505;29;19966;-70
2024/03/24 08:59:45;;;;;;;;;;;;;;;20.82;31.19;100948.28;4099645;29;20348;-71
2024/03/24 09:01:45;;;;;;;;;;;;;;;20.77;31.45;100952.25;4099815;29;19922;-70
2024/03/24 09:03:47;;;;;;;;;;;;;;;20.74;31.53;100951.53;4099861;29;20489;-72
2024/03/24 09:05:48;;;;;;;;;;;;;;;20.72;31.60;100955.28;4099448;29;19928;-71
2024/03/24 09:07:48;;;;;;;;;;;;;;;20.72;31.42;100963.31;4099618;29;20021;-72
2024/03/24 09:09:49;;;;;;;;;;;;;;;20.71;31.43;100949.03;4099170;29;19969;-71
2024/03/24 09:11:50;;;;;;;;;;;;;;;20.72;31.43;100949.94;4099394;29;20025;-73
2024/03/24 09:13:51;;;;;;;;;;;;;;;20.70;31.56;100951.84;4099322;29;19922;-72
2024/03/24 09:15:52;;;;;;;;;;;;;;;20.71;31.69;100951.72;4099629;29;19923;-73
2024/03/24 09:17:53;;;;;;;;;;;;;;;20.71;31.43;100946.38;4099229;29;19922;-73
2024/03/24 09:19:54;;;;;;;;;;;;;;;20.70;31.50;100952.69;4099407;29;19937;-73
2024/03/24 09:21:55;;;;;;;;;;;;;;;20.71;31.54;100953.53;4099343;28;19934;-73
2024/03/24 09:23:55;;;;;;;;;;;;;;;20.71;31.48;100953.53;4099190;29;19933;-73
2024/03/24 09:25:56;;;;;;;;;;;;;;;20.71;31.80;100956.22;4099550;29;19923;-73
2024/03/24 09:27:57;;;;;;;;;;;;;;;20.70;31.44;100952.69;4099448;29;20382;-73
2024/03/24 09:29:58;;;;;;;;;;;;;;;20.70;31.50;100946.50;4099323;29;20012;-73
2024/03/24 09:32:00;;;;;;;;;;;;;;;20.70;31.63;100947.34;4099072;29;20405;-73
2024/03/24 09:34:01;;;;;;;;;;;;;;;20.73;31.72;100967.69;4098992;29;19922;-73
2024/03/24 09:36:02;;;;;;;;;;;;;;;20.77;31.78;100961.13;4099380;29;20074;-72
2024/03/24 09:38:03;;;;;;;;;;;;;;;20.76;31.71;100953.25;4099057;29;20366;-73
2024/03/24 09:40:04;;;;;;;;;;;;;;;20.77;31.58;100955.78;4107470;28;19926;-74
2024/03/24 09:42:07;;;;;;;;;;;;;;;20.80;31.76;100965.41;4099027;29;19932;-73
2024/03/24 09:44:15;;;;;;;;;;;;;;;20.79;31.77;100951.19;4098985;29;20404;-72
2024/03/24 09:46:16;;;;;;;;;;;;;;;20.80;31.60;100952.03;4098893;29;19926;-73
2024/03/24 09:48:17;;;;;;;;;;;;;;;20.82;32.01;100952.78;4098869;29;19977;-72
2024/03/24 09:50:18;;;;;;;;;;;;;;;20.84;31.45;100942.81;4098913;29;20476;-72
2024/03/24 09:52:20;;;;;;;;;;;;;;;20.84;31.58;100948.16;4098768;29;19929;-71
2024/03/24 09:54:22;;;;;;;;;;;;;;;20.85;31.45;100949.84;4098541;29;19922;-74
2024/03/24 09:56:24;;;;;;;;;;;;;;;20.87;31.81;100955.94;4098884;29;19923;-73
2024/03/24 09:58:25;;;;;;;;;;;;;;;20.90;31.86;100951.22;4098633;29;19926;-74
2024/03/24 10:00:26;;;;;;;;;;;;;;;20.95;31.86;100953.56;4067164;29;19922;-72
2024/03/24 10:02:28;;;;;;;;;;;;;;;20.95;31.65;100956.22;4098981;29;19922;-73
2024/03/24 10:04:29;;;;;;;;;;;;;;;20.98;31.63;100952.47;4098702;29;19944;-73
2024/03/24 10:06:30;;;;;;;;;;;;;;;21.00;31.81;100951.38;4098717;29;20410;-72
2024/03/24 10:08:35;;;;;;;;;;;;;;;21.02;31.61;100954.78;4082521;29;19961;-74
2024/03/24 10:10:36;;;;;;;;;;;;;;;21.03;31.30;100960.97;4098596;29;19926;-71
2024/03/24 10:12:37;;;;;;;;;;;;;;;21.03;31.65;100945.81;4098620;29;19926;-73
2024/03/24 10:14:38;;;;;;;;;;;;;;;21.04;31.57;100941.31;4082700;29;19922;-73
2024/03/24 10:16:38;;;;;;;;;;;;;;;21.01;31.55;100950.41;4098506;29;20469;-71
2024/03/24 10:18:39;;;;;;;;;;;;;;;20.99;31.57;100946.16;4098362;29;19929;-72
2024/03/24 10:20:40;;;;;;;;;;;;;;;20.98;31.73;100952.47;4098542;29;19973;-73